»·PEaware :: N71FS KLAX-KSNA

N71FS :: KLAX-KSNA

FLIGHT INFORMATION

Flight Status: Arrived
Operator: Privately registered:
United States
More flights under this callsign
Pilot: Jerry C. (10956)
Aircraft: BEECH AIRCRAFT BARON
(BE58)
More flights by this aircraft type
Origin: KLAX Los Angeles Intl
United States
Destination: KSNA John Wayne-Orange Co
United States
More flights between these airports :: More routes between these airports
Route: KLAX SLI8 SLI KSNA
File this flight plan on PilotEdge
Remarks: I-6
Altitude:
(Current/Filed)
4,000ft
Speed:
(Current/Filed)
180kts
Departed: 26-Apr-19 08:17 PM
Arrived: 26-Apr-19 08:46 PM
Distance/Time
Traveled:
1nm/0:29
Distance/Time
To Go:
Arrived

Flight Plot

Page will automatically refresh every two minutes.

Flight plan parsing failed; only flown route is shown


Map Options




Map Legend


Flown Route
Filed Route
Departure Airport
Arrival Airport
Navaid (VOR, NDB)
Fix

Horizontal Profiles

Position Reports

Time Latitude Longitude Heading Altitude Ground
Speed
26-Apr-19 20:00 33.941811 -118.394098 267 129ft 0kts
26-Apr-19 20:01 33.941811 -118.394100 267 129ft 0kts
26-Apr-19 20:02 33.941811 -118.394101 267 129ft 0kts
26-Apr-19 20:03 33.941811 -118.394102 267 129ft 0kts
26-Apr-19 20:04 33.941811 -118.394103 267 129ft 0kts
26-Apr-19 20:05 33.941811 -118.394104 267 129ft 0kts
26-Apr-19 20:06 33.941811 -118.394106 267 129ft 0kts
26-Apr-19 20:07 33.941811 -118.394107 267 129ft 0kts
26-Apr-19 20:08 33.941811 -118.394108 267 129ft 0kts
26-Apr-19 20:09 33.941811 -118.394109 267 129ft 0kts
26-Apr-19 20:10 33.941077 -118.393516 135 129ft 8kts
26-Apr-19 20:11 33.940606 -118.389637 80 129ft 10kts
26-Apr-19 20:12 33.941135 -118.384110 88 129ft 11kts
26-Apr-19 20:13 33.940744 -118.381071 88 129ft 0kts
26-Apr-19 20:14 33.940726 -118.380720 101 129ft 0kts
26-Apr-19 20:15 33.939926 -118.380362 241 129ft 3kts
26-Apr-19 20:16 33.938048 -118.398945 263 393ft 115kts
26-Apr-19 20:17 33.931619 -118.444725 234 1334ft 159kts
26-Apr-19 20:18 33.895303 -118.475352 211 2449ft 153kts
26-Apr-19 20:19 33.861778 -118.501286 214 3842ft 135kts
26-Apr-19 20:20 33.819393 -118.502007 164 4032ft 176kts
26-Apr-19 20:21 33.777952 -118.470674 133 4023ft 182kts
26-Apr-19 20:22 33.742343 -118.426943 132 4018ft 183kts
26-Apr-19 20:23 33.718863 -118.375680 86 4030ft 180kts
26-Apr-19 20:24 33.726933 -118.316364 72 4022ft 183kts
26-Apr-19 20:25 33.741073 -118.256557 72 4019ft 187kts
26-Apr-19 20:26 33.755431 -118.195997 72 4019ft 190kts
26-Apr-19 20:27 33.767671 -118.134030 75 4018ft 191kts
26-Apr-19 20:28 33.779658 -118.071640 75 4018ft 191kts
26-Apr-19 20:29 33.795885 -118.011324 62 4019ft 190kts
26-Apr-19 20:30 33.820363 -117.955043 60 4018ft 190kts
26-Apr-19 20:31 33.845283 -117.898814 60 4018ft 190kts
26-Apr-19 20:32 33.869858 -117.844225 60 4016ft 182kts
26-Apr-19 20:33 33.893996 -117.790841 60 4018ft 180kts
26-Apr-19 20:34 33.918367 -117.737710 60 3930ft 186kts
26-Apr-19 20:35 33.952706 -117.694262 22 3622ft 180kts
26-Apr-19 20:36 33.987196 -117.719364 261 3624ft 173kts
26-Apr-19 20:37 33.949574 -117.751893 195 3620ft 174kts
26-Apr-19 20:38 33.902491 -117.765144 191 3620ft 175kts
26-Apr-19 20:39 33.852962 -117.776506 190 3414ft 177kts
26-Apr-19 20:40 33.806927 -117.787789 198 3416ft 163kts
26-Apr-19 20:41 33.765516 -117.811589 209 3232ft 168kts
26-Apr-19 20:42 33.727742 -117.837466 209 2611ft 134kts
26-Apr-19 20:43 33.697518 -117.854978 206 756ft 103kts
26-Apr-19 20:44 33.676496 -117.868267 206 59ft 62kts
26-Apr-19 20:45 33.674156 -117.870869 294 59ft 12kts
26-Apr-19 20:46 33.674262 -117.871144 294 59ft 0kts
26-Apr-19 20:47 33.941810 -118.394108 261 129ft 1kts
26-Apr-19 20:48 33.941526 -118.394033 136 129ft 0kts
26-Apr-19 20:49 33.941525 -118.394032 136 129ft 0kts
26-Apr-19 20:50 33.941525 -118.394032 136 129ft 0kts
26-Apr-19 20:51 33.941524 -118.394031 136 129ft 0kts
26-Apr-19 20:52 33.941523 -118.394030 136 129ft 0kts
26-Apr-19 20:53 33.941522 -118.394029 136 129ft 0kts
26-Apr-19 20:54 33.941522 -118.394029 136 129ft 0kts
26-Apr-19 20:55 33.941500 -118.394000 0 129ft 0kts
26-Apr-19 20:56 33.941521 -118.394027 136 129ft 0kts
26-Apr-19 20:57 33.941811 -118.394097 267 129ft 0kts
26-Apr-19 20:58 33.941811 -118.394097 267 129ft 0kts
26-Apr-19 20:59 33.941811 -118.394097 267 129ft 0kts

Navigation Log

Ident Type
Flight plan parsing failed, navigation log unavailable